Time;durP1;ratioP1;P1;durP2;ratioP2;P2;SDS_P1;SDS_P2;PMS_P1;PMS_P2;Temp;Humidity;BMP_temperature;BMP_pressure;BME280_temperature;BME280_humidity;BME280_pressure;Samples;Min_cycle;Max_cycle;Signal;HPM_P1;HPM_P2
2022/05/08 00:00:01;;;;;;;16.42;4.22;;;7.40;99.90;;;;;;5037512;28;20079;-91
2022/05/08 00:02:27;;;;;;;17.98;5.35;;;7.50;99.90;;;;;;5004166;28;20045;-93
2022/05/08 00:04:53;;;;;;;21.90;5.20;;;7.50;99.90;;;;;;5004910;28;20098;-92
2022/05/08 00:07:20;;;;;;;26.20;5.82;;;7.40;99.90;;;;;;5004565;28;20136;-92
2022/05/08 00:09:47;;;;;;;22.75;5.30;;;7.40;99.90;;;;;;5020702;28;20041;-93
2022/05/08 00:12:15;;;;;;;24.30;5.10;;;7.40;99.90;;;;;;5021614;28;20571;-92
2022/05/08 00:14:42;;;;;;;18.60;4.90;;;7.40;99.90;;;;;;5004206;28;20090;-93
2022/05/08 00:17:13;;;;;;;20.02;4.88;;;7.40;99.90;;;;;;5020757;28;20494;-93
2022/05/08 00:19:40;;;;;;;20.30;4.72;;;7.30;99.90;;;;;;5020379;28;20501;-92
2022/05/08 00:22:06;;;;;;;19.55;4.93;;;7.40;99.90;;;;;;5004227;28;20040;-92
2022/05/08 00:24:35;;;;;;;19.02;4.93;;;7.40;99.90;;;;;;5021141;28;20059;-92
2022/05/08 00:27:02;;;;;;;21.20;5.20;;;7.40;99.90;;;;;;5020726;28;20128;-93
2022/05/08 00:29:28;;;;;;;18.23;4.40;;;7.30;99.90;;;;;;5020646;28;20036;-92
2022/05/08 00:31:54;;;;;;;24.50;5.03;;;7.30;99.90;;;;;;5020698;28;20045;-93
2022/05/08 00:34:20;;;;;;;23.33;4.68;;;7.30;99.90;;;;;;5004664;28;20491;-92
2022/05/08 00:36:46;;;;;;;16.33;4.88;;;7.20;99.90;;;;;;5038697;28;20045;-92
2022/05/08 00:39:13;;;;;;;20.02;4.72;;;7.30;99.90;;;;;;5008461;28;20493;-91
2022/05/08 00:41:39;;;;;;;21.77;5.10;;;7.30;99.90;;;;;;5007354;28;20037;-92
2022/05/08 00:44:06;;;;;;;16.52;3.90;;;7.30;99.90;;;;;;5025125;28;20501;-92
2022/05/08 00:46:32;;;;;;;26.40;4.50;;;7.30;99.90;;;;;;5025267;28;20045;-93
2022/05/08 00:48:58;;;;;;;19.90;4.05;;;7.40;99.90;;;;;;5010651;28;20479;-93
2022/05/08 00:51:26;;;;;;;16.15;4.28;;;7.30;99.90;;;;;;5025330;28;20065;-93
2022/05/08 00:53:54;;;;;;;15.10;4.95;;;7.30;99.90;;;;;;5041866;28;20040;-92
2022/05/08 00:56:21;;;;;;;18.25;4.07;;;7.30;99.90;;;;;;5024571;28;20506;-91
2022/05/08 00:58:50;;;;;;;16.45;3.75;;;7.30;99.90;;;;;;5028014;28;20198;-92
2022/05/08 01:01:17;;;;;;;19.65;4.38;;;7.20;99.90;;;;;;5010573;28;20037;-93
2022/05/08 01:03:46;;;;;;;18.70;4.50;;;7.20;99.90;;;;;;5024381;28;20094;-93
2022/05/08 01:06:17;;;;;;;19.67;4.00;;;7.20;99.90;;;;;;5023487;28;20047;-91
2022/05/08 01:08:46;;;;;;;12.95;3.83;;;7.20;99.90;;;;;;5023206;28;20138;-93
2022/05/08 01:11:13;;;;;;;18.35;4.10;;;7.20;99.90;;;;;;5039868;28;20049;-92
2022/05/08 01:13:42;;;;;;;17.45;3.80;;;7.20;99.90;;;;;;5023102;28;20053;-93
2022/05/08 01:16:09;;;;;;;21.50;4.10;;;7.20;99.90;;;;;;5039866;28;20041;-91
2022/05/08 01:18:35;;;;;;;17.88;3.50;;;7.10;99.90;;;;;;5023368;28;20375;-92
2022/05/08 01:21:02;;;;;;;16.00;4.65;;;7.20;99.90;;;;;;5023481;28;20121;-92
2022/05/08 01:23:29;;;;;;;18.50;4.15;;;7.10;99.90;;;;;;5023347;28;20384;-92
2022/05/08 01:25:56;;;;;;;18.38;4.32;;;7.10;99.90;;;;;;5006740;28;20056;-92
2022/05/08 01:28:23;;;;;;;16.30;3.97;;;7.10;99.90;;;;;;5023090;28;20045;-93
2022/05/08 01:30:51;;;;;;;13.55;3.95;;;7.10;99.90;;;;;;5023209;28;20490;-92
2022/05/08 01:33:18;;;;;;;20.55;4.93;;;7.00;99.90;;;;;;5022871;28;20140;-93
2022/05/08 01:35:44;;;;;;;17.60;3.80;;;7.00;99.90;;;;;;5023099;28;20048;-93
2022/05/08 01:38:13;;;;;;;10.65;3.42;;;7.00;99.90;;;;;;5023465;28;20041;-93
2022/05/08 01:40:40;;;;;;;18.10;3.97;;;7.00;99.90;;;;;;5039691;28;20394;-91
2022/05/08 01:43:07;;;;;;;14.77;3.67;;;6.90;99.90;;;;;;5022786;28;20052;-92
2022/05/08 01:45:33;;;;;;;10.75;3.45;;;6.90;99.90;;;;;;5022539;28;20048;-92
2022/05/08 01:50:45;;;;;;;16.23;3.97;;;6.90;99.90;;;;;;5036751;28;20044;-93
2022/05/08 01:53:11;;;;;;;12.82;3.63;;;6.80;99.90;;;;;;5022165;28;20080;-93
2022/05/08 01:55:37;;;;;;;16.98;3.72;;;6.80;99.90;;;;;;5022854;28;20556;-92
2022/05/08 01:58:03;;;;;;;13.02;3.83;;;6.70;99.90;;;;;;5023691;28;20044;-92
2022/05/08 02:00:31;;;;;;;14.10;3.50;;;6.70;99.90;;;;;;5022629;28;20091;-92
2022/05/08 02:02:59;;;;;;;16.45;4.05;;;6.70;99.90;;;;;;5022473;28;20033;-92
2022/05/08 02:05:28;;;;;;;15.00;4.30;;;6.60;99.90;;;;;;5022430;28;20124;-92
2022/05/08 02:07:54;;;;;;;15.27;3.25;;;6.70;99.90;;;;;;5022364;28;20041;-92
2022/05/08 02:10:20;;;;;;;11.85;3.75;;;6.70;99.90;;;;;;5022341;28;20080;-91
2022/05/08 02:12:46;;;;;;;15.30;4.15;;;6.60;99.90;;;;;;5022632;28;20051;-92
2022/05/08 02:15:14;;;;;;;14.85;3.80;;;6.50;99.90;;;;;;5006066;28;20124;-94
2022/05/08 02:17:41;;;;;;;10.80;3.03;;;6.60;99.90;;;;;;5022279;28;20433;-92
2022/05/08 02:20:08;;;;;;;16.45;4.47;;;6.50;99.90;;;;;;5006182;28;20041;-92
2022/05/08 02:22:36;;;;;;;11.75;3.30;;;6.50;99.90;;;;;;5022352;28;20141;-93
2022/05/08 02:25:04;;;;;;;16.40;3.90;;;6.50;99.90;;;;;;5021654;28;20064;-92
2022/05/08 02:27:39;;;;;;;15.00;3.75;;;6.50;99.90;;;;;;5021707;28;20045;-93
2022/05/08 02:30:10;;;;;;;18.40;4.85;;;6.40;99.90;;;;;;5005518;28;20075;-94
2022/05/08 02:32:37;;;;;;;11.93;3.55;;;6.40;99.90;;;;;;5038519;28;20049;-94
2022/05/08 02:35:05;;;;;;;11.07;3.80;;;6.40;99.90;;;;;;5021908;28;20044;-92
2022/05/08 02:37:31;;;;;;;13.45;3.50;;;6.40;99.90;;;;;;5021833;28;20076;-92
2022/05/08 02:39:57;;;;;;;10.32;3.35;;;6.40;99.90;;;;;;5038163;28;20153;-92
2022/05/08 02:42:23;;;;;;;11.20;3.55;;;6.30;99.90;;;;;;5005517;28;20124;-93
2022/05/08 02:44:50;;;;;;;10.20;4.18;;;6.30;99.90;;;;;;5038284;28;20044;-92
2022/05/08 02:47:16;;;;;;;11.20;3.60;;;6.30;99.90;;;;;;5021776;28;20124;-92
2022/05/08 02:49:42;;;;;;;16.00;3.90;;;6.20;99.90;;;;;;5021609;28;20045;-93
2022/05/08 02:52:08;;;;;;;12.00;3.90;;;6.20;99.90;;;;;;5021671;28;20067;-91
2022/05/08 02:54:34;;;;;;;17.05;4.40;;;6.10;99.90;;;;;;5005136;28;20045;-92
2022/05/08 02:59:45;;;;;;;9.80;3.47;;;6.10;99.90;;;;;;5021824;28;20407;-92
2022/05/08 03:02:11;;;;;;;11.77;3.88;;;6.00;99.90;;;;;;5005015;28;20040;-92
2022/05/08 03:04:37;;;;;;;10.63;3.83;;;6.00;99.90;;;;;;5021621;28;20041;-93
2022/05/08 03:07:03;;;;;;;14.10;3.80;;;6.00;99.90;;;;;;5022588;28;20127;-93
2022/05/08 03:09:29;;;;;;;10.38;3.53;;;6.00;99.90;;;;;;5004832;28;20045;-94
2022/05/08 03:11:55;;;;;;;12.13;3.50;;;6.00;99.90;;;;;;5004688;28;20052;-95
2022/05/08 03:14:23;;;;;;;13.20;3.70;;;5.90;99.90;;;;;;5021101;28;20048;-93
2022/05/08 03:16:49;;;;;;;9.65;3.30;;;5.90;99.90;;;;;;5021061;28;20048;-92
2022/05/08 03:19:17;;;;;;;14.30;4.03;;;5.80;99.90;;;;;;5005000;28;20045;-92
2022/05/08 03:21:44;;;;;;;11.48;4.07;;;6.00;99.90;;;;;;5004487;28;20175;-93
2022/05/08 03:24:10;;;;;;;14.40;3.83;;;5.80;99.90;;;;;;5004544;28;20036;-92
2022/05/08 03:26:36;;;;;;;8.00;3.35;;;5.90;99.90;;;;;;5004823;28;20390;-92
2022/05/08 03:29:03;;;;;;;11.63;3.28;;;5.80;99.90;;;;;;5004452;28;20135;-92
2022/05/08 03:31:29;;;;;;;7.53;3.00;;;5.80;99.90;;;;;;5021172;28;20052;-92
2022/05/08 03:33:55;;;;;;;11.65;3.25;;;5.70;99.90;;;;;;5004574;28;20059;-92
2022/05/08 03:36:21;;;;;;;11.52;3.75;;;5.70;99.90;;;;;;5004693;28;20494;-93
2022/05/08 03:38:48;;;;;;;10.18;3.53;;;5.60;99.90;;;;;;5004531;28;20109;-93
2022/05/08 03:41:17;;;;;;;16.08;4.00;;;5.70;99.90;;;;;;5021048;28;20552;-91
2022/05/08 03:43:46;;;;;;;10.73;3.28;;;5.60;99.90;;;;;;5020522;28;20064;-93
2022/05/08 03:46:14;;;;;;;11.88;3.50;;;5.60;99.90;;;;;;5020554;28;20478;-91
2022/05/08 03:48:40;;;;;;;11.43;3.30;;;5.60;99.90;;;;;;5021543;28;20049;-93
2022/05/08 03:51:07;;;;;;;7.05;3.00;;;5.50;99.90;;;;;;5037942;28;20045;-92
2022/05/08 03:53:33;;;;;;;11.65;3.20;;;5.60;99.90;;;;;;5020685;28;20053;-92
2022/05/08 03:56:00;;;;;;;11.70;3.80;;;5.60;99.90;;;;;;5004434;28;20041;-94
2022/05/08 03:58:26;;;;;;;9.18;3.42;;;5.60;99.90;;;;;;5004301;28;20041;-91
2022/05/08 04:00:53;;;;;;;10.30;3.30;;;5.60;99.90;;;;;;5020506;28;20072;-92
2022/05/08 04:03:19;;;;;;;11.60;3.58;;;5.50;99.90;;;;;;5019604;28;20496;-92
2022/05/08 04:05:45;;;;;;;14.60;4.10;;;5.50;99.90;;;;;;5020637;28;20084;-93
2022/05/08 04:08:11;;;;;;;14.27;3.78;;;5.50;99.90;;;;;;5004182;28;20049;-92
2022/05/08 04:10:38;;;;;;;11.63;3.78;;;5.40;99.90;;;;;;5003883;28;20133;-92
2022/05/08 04:13:04;;;;;;;14.18;4.13;;;5.40;99.90;;;;;;5020361;28;20056;-91
2022/05/08 04:18:14;;;;;;;10.77;4.25;;;5.40;99.90;;;;;;5034280;28;20080;-91
2022/05/08 04:20:40;;;;;;;13.38;4.10;;;5.50;99.90;;;;;;5020367;28;20044;-93
2022/05/08 04:25:52;;;;;;;9.77;3.40;;;5.40;99.90;;;;;;5020609;28;20402;-92
2022/05/08 04:28:19;;;;;;;10.73;3.80;;;5.40;99.90;;;;;;5003598;28;20056;-92
2022/05/08 04:30:49;;;;;;;8.48;3.83;;;5.40;99.90;;;;;;5003712;28;20049;-93
2022/05/08 04:33:16;;;;;;;13.48;4.25;;;5.50;99.90;;;;;;5005619;28;20052;-91
2022/05/08 04:35:42;;;;;;;10.77;3.80;;;5.50;99.90;;;;;;5023614;28;20041;-94
2022/05/08 04:38:09;;;;;;;14.30;3.67;;;5.60;99.90;;;;;;5007351;28;20041;-93
2022/05/08 04:40:35;;;;;;;11.27;3.90;;;5.70;99.90;;;;;;5023855;28;20506;-92
2022/05/08 04:43:01;;;;;;;9.98;4.15;;;5.60;99.90;;;;;;5007148;28;20044;-92
2022/05/08 04:45:27;;;;;;;18.13;4.78;;;5.70;99.90;;;;;;5007674;28;20494;-93
2022/05/08 04:47:53;;;;;;;13.70;3.80;;;5.60;99.90;;;;;;5023606;28;20088;-93
2022/05/08 04:50:20;;;;;;;13.80;3.90;;;5.70;99.90;;;;;;5006179;28;20045;-92
2022/05/08 04:52:45;;;;;;;11.45;4.63;;;5.70;99.90;;;;;;4967768;28;1191677;-92
2022/05/08 04:55:12;;;;;;;11.82;4.03;;;5.80;99.90;;;;;;5006936;28;20132;-92
2022/05/08 04:57:37;;;;;;;10.98;4.15;;;5.70;99.90;;;;;;5008377;28;20119;-93
2022/05/08 05:00:04;;;;;;;16.60;4.18;;;5.70;99.90;;;;;;5008222;28;20045;-91
2022/05/08 05:02:31;;;;;;;11.80;4.10;;;5.80;99.90;;;;;;5024573;28;20128;-93
2022/05/08 05:04:57;;;;;;;13.52;4.55;;;5.80;99.90;;;;;;5008108;28;20098;-92
2022/05/08 05:07:24;;;;;;;13.10;4.05;;;5.80;99.90;;;;;;5008327;28;20041;-92
2022/05/08 05:09:50;;;;;;;12.90;4.60;;;5.80;99.90;;;;;;5008150;28;20502;-91
2022/05/08 05:12:16;;;;;;;11.05;4.20;;;5.80;99.90;;;;;;5008663;28;20036;-92
2022/05/08 05:14:42;;;;;;;11.20;4.47;;;5.90;99.90;;;;;;5024331;28;20052;-92
2022/05/08 05:17:08;;;;;;;15.63;4.28;;;6.00;99.90;;;;;;5008011;28;20490;-91
2022/05/08 05:19:34;;;;;;;12.07;3.80;;;5.90;99.90;;;;;;5008352;28;20114;-92
2022/05/08 05:22:00;;;;;;;12.80;4.15;;;5.90;99.90;;;;;;5007998;28;20045;-92
2022/05/08 05:24:26;;;;;;;9.50;3.92;;;6.10;99.90;;;;;;5007907;28;20451;-92
2022/05/08 05:26:52;;;;;;;10.30;4.25;;;6.10;99.90;;;;;;5007235;28;20123;-92
2022/05/08 05:29:18;;;;;;;16.58;4.45;;;6.10;99.90;;;;;;5008312;28;20048;-91
2022/05/08 05:31:44;;;;;;;12.13;4.93;;;6.20;99.90;;;;;;5007720;28;20040;-92
2022/05/08 05:34:11;;;;;;;12.07;4.40;;;6.30;99.90;;;;;;5024338;28;20047;-93
2022/05/08 05:36:37;;;;;;;17.45;4.88;;;6.40;99.90;;;;;;5007763;28;20041;-92
2022/05/08 05:39:03;;;;;;;11.73;4.72;;;6.60;99.90;;;;;;5024322;28;20048;-93
2022/05/08 05:41:29;;;;;;;10.73;4.80;;;6.70;99.90;;;;;;5007232;28;20120;-93
2022/05/08 05:43:55;;;;;;;11.32;3.95;;;6.70;99.90;;;;;;4993934;28;20048;-91
2022/05/08 05:49:05;;;;;;;14.63;4.60;;;6.90;99.90;;;;;;5020353;28;20086;-92
2022/05/08 05:51:31;;;;;;;12.40;3.78;;;7.10;99.90;;;;;;4991949;28;20049;-92
2022/05/08 05:53:57;;;;;;;14.98;4.55;;;7.20;99.90;;;;;;5004446;28;20050;-92
2022/05/08 05:56:23;;;;;;;11.95;3.95;;;7.30;99.90;;;;;;5019893;28;20045;-93
2022/05/08 05:58:49;;;;;;;14.77;4.05;;;7.50;99.90;;;;;;4987353;28;20062;-93
2022/05/08 06:01:17;;;;;;;11.68;3.55;;;7.60;99.90;;;;;;5003657;28;20044;-92
2022/05/08 06:03:43;;;;;;;9.20;3.85;;;7.70;99.90;;;;;;5004058;28;20570;-93
2022/05/08 06:06:09;;;;;;;10.18;3.70;;;7.90;99.90;;;;;;4990993;28;20120;-94
2022/05/08 06:08:35;;;;;;;15.07;4.15;;;8.00;99.90;;;;;;5006124;28;20053;-93
2022/05/08 06:11:01;;;;;;;11.57;3.50;;;8.10;99.90;;;;;;5023441;28;20080;-95
2022/05/08 06:13:28;;;;;;;13.85;3.40;;;8.20;99.90;;;;;;5007145;28;20041;-94
2022/05/08 06:15:53;;;;;;;15.80;3.05;;;8.30;99.90;;;;;;5007029;28;20055;-92
2022/05/08 06:18:19;;;;;;;13.05;3.53;;;8.40;99.90;;;;;;5006614;28;20041;-93
2022/05/08 06:20:46;;;;;;;11.68;3.03;;;8.40;99.90;;;;;;5006956;28;20076;-91
2022/05/08 06:23:12;;;;;;;13.50;3.28;;;8.60;99.90;;;;;;5006903;28;20041;-93
2022/05/08 06:25:41;;;;;;;11.48;3.10;;;8.60;99.90;;;;;;5023017;28;20052;-91
2022/05/08 06:28:08;;;;;;;12.60;2.88;;;8.70;99.90;;;;;;5021948;28;20056;-92
2022/05/08 06:30:35;;;;;;;14.10;2.60;;;8.70;99.90;;;;;;5039783;28;20135;-92
2022/05/08 06:33:01;;;;;;;12.70;3.30;;;8.80;99.90;;;;;;5022219;28;20040;-92
2022/05/08 06:35:27;;;;;;;11.75;2.35;;;8.80;99.90;;;;;;5022858;28;20401;-93
2022/05/08 06:37:54;;;;;;;10.98;2.58;;;8.90;99.90;;;;;;5022331;28;20047;-92
2022/05/08 06:40:21;;;;;;;8.65;2.30;;;9.00;99.90;;;;;;5006289;28;20036;-91
2022/05/08 06:42:47;;;;;;;16.23;2.60;;;9.10;99.90;;;;;;5005938;28;20045;-92
2022/05/08 06:45:13;;;;;;;11.32;2.78;;;9.20;99.90;;;;;;5022305;28;20101;-91
2022/05/08 06:47:41;;;;;;;13.23;2.85;;;9.30;99.90;;;;;;5005636;28;20491;-92
2022/05/08 06:50:08;;;;;;;15.65;2.65;;;9.50;99.90;;;;;;5005679;28;20049;-91
2022/05/08 06:52:34;;;;;;;11.68;2.30;;;9.50;99.90;;;;;;5021498;28;20103;-93
2022/05/08 06:55:00;;;;;;;12.23;2.28;;;9.60;99.90;;;;;;5020688;28;20059;-93
2022/05/08 06:57:26;;;;;;;8.70;2.78;;;9.70;99.90;;;;;;5005863;28;20132;-92
2022/05/08 07:02:43;;;;;;;13.85;2.20;;;9.80;99.90;;;;;;5022306;28;20073;-92
2022/05/08 07:05:09;;;;;;;;;;;9.80;99.90;;;;;;5039419;28;20127;-91
2022/05/08 07:07:35;;;;;;;11.63;2.28;;;9.70;99.90;;;;;;5005575;28;19927;-92
2022/05/08 07:10:01;;;;;;;10.57;2.50;;;9.70;99.90;;;;;;5005650;28;20052;-91
2022/05/08 07:12:27;;;;;;;8.52;2.42;;;9.70;99.90;;;;;;5021781;28;20045;-92
2022/05/08 07:14:58;;;;;;;13.45;2.88;;;9.70;99.90;;;;;;5022227;28;20110;-92
2022/05/08 07:17:25;;;;;;;12.38;2.47;;;9.70;99.90;;;;;;5006047;28;20048;-93
2022/05/08 07:19:51;;;;;;;8.40;2.13;;;9.90;99.90;;;;;;5005768;28;20095;-91
2022/05/08 07:22:17;;;;;;;16.90;2.70;;;10.00;99.90;;;;;;5005250;28;20171;-91
2022/05/08 07:24:43;;;;;;;14.13;2.65;;;10.20;99.90;;;;;;5005790;28;20101;-91
2022/05/08 07:27:11;;;;;;;13.02;2.50;;;10.30;99.90;;;;;;5005746;28;20470;-91
2022/05/08 07:29:46;;;;;;;14.90;2.83;;;10.40;99.90;;;;;;5005282;28;20439;-91
2022/05/08 07:32:12;;;;;;;10.48;2.42;;;10.60;99.90;;;;;;5005360;28;20111;-94
2022/05/08 07:37:24;;;;;;;11.88;2.85;;;10.70;99.90;;;;;;5021234;28;20084;-91
2022/05/08 07:39:50;;;;;;;13.85;2.70;;;10.80;99.90;;;;;;5037428;28;20051;-91
2022/05/08 07:42:16;;;;;;;12.68;2.50;;;10.90;99.90;;;;;;5005519;28;20080;-92
2022/05/08 07:44:42;;;;;;;9.00;2.20;;;11.10;99.90;;;;;;5029685;28;20490;-91
2022/05/08 07:47:08;;;;;;;7.93;2.08;;;11.10;99.90;;;;;;4973292;28;20048;-92
2022/05/08 07:49:34;;;;;;;12.65;2.58;;;11.20;99.90;;;;;;5005899;28;20137;-92
2022/05/08 07:52:00;;;;;;;9.60;2.47;;;11.30;99.90;;;;;;4985955;28;20081;-92
2022/05/08 07:54:26;;;;;;;13.68;2.58;;;11.40;99.90;;;;;;4989994;28;20046;-94
2022/05/08 07:56:52;;;;;;;15.63;2.75;;;11.40;99.90;;;;;;4988491;28;20147;-93
2022/05/08 07:59:18;;;;;;;8.93;2.05;;;11.50;99.90;;;;;;4971863;28;20148;-92
2022/05/08 08:01:44;;;;;;;14.32;2.35;;;11.50;99.80;;;;;;4971204;28;20084;-93
2022/05/08 08:04:11;;;;;;;11.57;3.10;;;11.40;99.70;;;;;;4985990;28;20484;-93
2022/05/08 08:06:37;;;;;;;9.13;2.08;;;11.40;99.40;;;;;;4970125;28;20120;-92
2022/05/08 08:09:04;;;;;;;11.20;2.42;;;11.40;99.50;;;;;;4968532;28;20108;-94
2022/05/08 08:11:31;;;;;;;13.25;2.60;;;11.50;99.40;;;;;;4984395;28;20125;-93
2022/05/08 08:13:57;;;;;;;8.50;2.40;;;11.50;99.10;;;;;;5016389;28;20050;-92
2022/05/08 08:16:24;;;;;;;9.70;2.65;;;11.40;99.00;;;;;;4984373;28;20049;-92
2022/05/08 08:18:54;;;;;;;11.23;2.47;;;11.40;99.00;;;;;;4983174;28;20100;-92
2022/05/08 08:21:20;;;;;;;16.85;2.85;;;11.40;99.00;;;;;;4983877;28;20106;-91
2022/05/08 08:23:46;;;;;;;9.60;2.60;;;11.50;99.20;;;;;;4968279;28;20046;-93
2022/05/08 08:26:13;;;;;;;15.25;2.60;;;11.70;98.80;;;;;;4984200;28;20081;-92
2022/05/08 08:28:40;;;;;;;11.70;2.67;;;11.80;98.60;;;;;;4984352;28;20086;-93
2022/05/08 08:31:07;;;;;;;10.40;2.22;;;12.00;98.40;;;;;;4983870;28;20042;-92
2022/05/08 08:33:36;;;;;;;9.60;2.47;;;12.10;97.90;;;;;;4968840;28;20518;-92
2022/05/08 08:36:02;;;;;;;15.07;2.97;;;12.20;97.30;;;;;;4999679;28;20460;-93
2022/05/08 08:38:28;;;;;;;7.90;2.10;;;12.30;96.90;;;;;;4967177;28;20041;-92
2022/05/08 08:40:57;;;;;;;9.77;2.78;;;12.40;96.80;;;;;;4966751;28;20235;-94
2022/05/08 08:43:25;;;;;;;11.65;2.90;;;12.60;96.80;;;;;;4982103;28;20049;-93
2022/05/08 08:48:47;;;;;;;11.85;2.70;;;12.80;95.30;;;;;;4998338;28;20053;-93
2022/05/08 08:51:13;;;;;;;10.73;2.80;;;12.90;95.40;;;;;;4984279;28;20050;-94
2022/05/08 08:53:39;;;;;;;13.50;2.70;;;13.10;95.70;;;;;;4953586;28;20502;-91
2022/05/08 08:56:05;;;;;;;10.88;2.65;;;13.40;95.50;;;;;;4969687;28;20045;-93
2022/05/08 08:58:33;;;;;;;13.73;2.47;;;13.50;93.90;;;;;;5000968;28;20045;-94
2022/05/08 09:00:59;;;;;;;20.02;2.67;;;13.50;93.30;;;;;;4969257;28;20040;-93
2022/05/08 09:03:27;;;;;;;15.93;2.67;;;13.40;93.40;;;;;;4952412;28;20545;-92
2022/05/08 09:05:58;;;;;;;10.73;2.22;;;13.40;93.40;;;;;;5001803;28;20049;-92
2022/05/08 09:08:32;;;;;;;13.35;3.08;;;13.50;93.90;;;;;;4985190;28;20067;-94
2022/05/08 09:10:59;;;;;;;13.25;2.53;;;13.60;93.20;;;;;;5001760;28;20107;-93
2022/05/08 09:13:27;;;;;;;13.10;2.85;;;13.70;93.00;;;;;;4985084;28;20084;-93
2022/05/08 09:16:06;;;;;;;13.27;3.28;;;13.70;92.20;;;;;;5000951;28;20045;-93
2022/05/08 09:18:46;;;;;;;13.13;2.40;;;13.70;92.20;;;;;;4986078;28;20041;-93
2022/05/08 09:24:12;;;;;;;11.10;2.30;;;13.80;91.90;;;;;;4991511;28;20041;-93
2022/05/08 09:26:39;;;;;;;7.50;2.05;;;14.00;91.80;;;;;;5004526;28;20045;-93
2022/05/08 09:29:05;;;;;;;10.13;2.30;;;14.20;91.10;;;;;;4988396;28;20087;-93
2022/05/08 09:31:42;;;;;;;11.00;2.72;;;14.30;90.20;;;;;;4988854;28;20045;-93
2022/05/08 09:34:09;;;;;;;10.63;2.42;;;14.30;90.10;;;;;;5004781;28;20049;-94
2022/05/08 09:36:35;;;;;;;12.13;2.63;;;14.40;90.00;;;;;;5004375;28;20112;-94
2022/05/08 09:39:02;;;;;;;17.42;3.38;;;14.50;89.30;;;;;;4988650;28;20510;-93
2022/05/08 09:41:37;;;;;;;9.60;2.60;;;14.60;89.10;;;;;;5004606;28;20104;-94
2022/05/08 09:44:14;;;;;;;11.63;2.42;;;14.70;87.50;;;;;;5004417;28;20095;-94
2022/05/08 09:46:43;;;;;;;10.95;2.63;;;14.70;85.40;;;;;;5020783;28;20056;-92
2022/05/08 09:49:17;;;;;;;16.55;2.90;;;14.80;86.80;;;;;;4972636;28;20041;-94
2022/05/08 09:51:44;;;;;;;15.95;2.67;;;15.00;87.60;;;;;;5004019;28;20057;-92
2022/05/08 09:54:13;;;;;;;12.43;2.80;;;14.90;85.30;;;;;;5004159;28;20041;-94
2022/05/08 09:56:41;;;;;;;9.32;2.38;;;14.80;84.90;;;;;;5004409;28;20037;-94
2022/05/08 09:59:08;;;;;;;12.98;2.60;;;14.90;84.30;;;;;;4988220;28;20501;-94
2022/05/08 10:01:34;;;;;;;13.25;2.92;;;14.90;82.20;;;;;;5003981;28;20033;-93
2022/05/08 10:04:00;;;;;;;13.25;2.67;;;15.00;81.60;;;;;;4987514;28;20041;-93
2022/05/08 10:06:28;;;;;;;10.75;2.30;;;15.20;82.60;;;;;;5003783;28;20125;-93
2022/05/08 10:13:53;;;;;;;9.13;2.50;;;15.30;81.10;;;;;;4987929;28;20138;-94
2022/05/08 10:14:36;;;;;;;12.68;2.40;;;15.70;78.80;;;;;;5004668;28;20041;-93
2022/05/08 10:17:05;;;;;;;15.68;2.65;;;15.70;79.00;;;;;;5003313;28;20045;-93
2022/05/08 10:19:31;;;;;;;14.13;2.80;;;15.70;78.70;;;;;;5003517;28;20037;-92
2022/05/08 10:21:57;;;;;;;14.50;2.78;;;15.70;78.30;;;;;;4987431;28;20041;-95
2022/05/08 10:24:38;;;;;;;10.07;2.53;;;15.80;78.10;;;;;;4987337;28;20091;-95
2022/05/08 10:27:16;;;;;;;13.73;2.75;;;15.80;77.80;;;;;;5003611;28;20132;-92
2022/05/08 10:29:51;;;;;;;11.25;2.65;;;15.90;75.90;;;;;;4985976;28;20187;-92
2022/05/08 10:32:32;;;;;;;14.77;2.85;;;15.90;76.30;;;;;;4987191;28;20494;-93
2022/05/08 10:35:12;;;;;;;9.73;2.47;;;16.00;76.80;;;;;;4986832;28;20096;-94
2022/05/08 10:37:42;;;;;;;11.00;2.53;;;16.20;77.40;;;;;;5003417;28;20049;-94
2022/05/08 10:40:23;;;;;;;10.98;2.83;;;16.10;76.60;;;;;;5003671;28;20041;-94
2022/05/08 10:42:50;;;;;;;12.23;2.75;;;16.10;75.00;;;;;;4988106;28;20558;-94
2022/05/08 10:45:46;;;;;;;12.85;2.35;;;16.10;74.20;;;;;;4986952;28;20056;-94
2022/05/08 10:48:20;;;;;;;16.00;3.50;;;16.20;73.20;;;;;;4979232;28;20061;-94
2022/05/08 10:50:57;;;;;;;11.77;2.30;;;16.30;72.80;;;;;;5003128;28;20046;-93
2022/05/08 10:53:33;;;;;;;10.82;2.60;;;16.30;70.70;;;;;;5003096;28;20045;-93
2022/05/08 10:56:05;;;;;;;13.20;2.65;;;16.30;72.80;;;;;;5003278;28;20037;-92
2022/05/08 10:58:33;;;;;;;8.57;2.42;;;16.30;71.50;;;;;;5003045;28;20541;-93
2022/05/08 11:01:02;;;;;;;10.80;2.92;;;16.40;71.70;;;;;;4986887;28;20125;-94
2022/05/08 11:03:31;;;;;;;8.65;2.13;;;16.50;70.30;;;;;;5003194;28;20045;-94
2022/05/08 11:05:58;;;;;;;13.70;2.70;;;16.60;69.10;;;;;;5001962;28;20042;-94
2022/05/08 11:08:31;;;;;;;7.97;2.30;;;16.60;69.10;;;;;;5019136;28;20049;-93
2022/05/08 11:11:18;;;;;;;12.75;2.22;;;16.70;69.40;;;;;;5002552;28;20127;-93
2022/05/08 11:13:48;;;;;;;14.48;2.85;;;16.80;69.20;;;;;;5001612;28;20192;-93
2022/05/08 11:16:34;;;;;;;10.18;2.50;;;16.90;68.40;;;;;;5002677;28;20041;-93
2022/05/08 11:19:00;;;;;;;12.20;2.78;;;17.00;68.20;;;;;;5018140;28;20056;-93
2022/05/08 11:21:26;;;;;;;9.32;2.67;;;17.20;68.80;;;;;;4986909;28;20045;-93
2022/05/08 11:23:54;;;;;;;18.02;2.40;;;17.30;68.60;;;;;;5002675;28;20045;-93
2022/05/08 11:26:31;;;;;;;10.55;2.47;;;17.50;68.40;;;;;;4986449;28;20041;-93
2022/05/08 11:28:58;;;;;;;14.63;2.80;;;17.50;67.70;;;;;;5002082;28;20041;-93
2022/05/08 11:31:26;;;;;;;10.50;2.50;;;17.60;67.90;;;;;;5002019;28;20060;-92
2022/05/08 11:36:40;;;;;;;15.60;2.63;;;17.50;65.30;;;;;;4988733;28;20068;-93
2022/05/08 11:39:11;;;;;;;8.82;2.20;;;17.60;67.60;;;;;;5003080;28;20041;-92
2022/05/08 11:41:49;;;;;;;13.35;2.45;;;17.80;68.50;;;;;;4986121;28;20544;-92
2022/05/08 11:44:17;;;;;;;12.93;3.22;;;18.10;68.10;;;;;;4986175;28;20045;-93
2022/05/08 11:46:45;;;;;;;9.93;2.40;;;18.20;66.40;;;;;;5001922;28;20111;-94
2022/05/08 11:49:32;;;;;;;10.13;2.22;;;18.20;65.20;;;;;;5001631;28;20045;-92
2022/05/08 11:52:01;;;;;;;7.75;2.40;;;18.20;65.60;;;;;;5001671;28;20068;-93
2022/05/08 11:54:33;;;;;;;13.40;2.92;;;18.20;64.50;;;;;;5001851;28;20125;-94
2022/05/08 11:57:19;;;;;;;11.10;2.33;;;18.20;62.30;;;;;;5001741;28;20049;-93
2022/05/08 11:59:51;;;;;;;11.15;2.55;;;18.00;61.90;;;;;;5001907;28;20474;-92
2022/05/08 12:02:18;;;;;;;11.88;3.20;;;18.10;62.70;;;;;;5001679;28;20037;-93
2022/05/08 12:04:55;;;;;;;9.10;2.30;;;18.20;63.10;;;;;;4985773;28;20048;-92
2022/05/08 12:07:21;;;;;;;11.23;2.90;;;18.30;61.70;;;;;;4985864;28;20487;-93
2022/05/08 12:09:47;;;;;;;38.38;2.85;;;18.40;61.90;;;;;;4985825;28;20060;-93
2022/05/08 12:12:27;;;;;;;10.50;2.20;;;18.40;61.20;;;;;;4985873;28;20042;-96
2022/05/08 12:15:02;;;;;;;13.20;2.70;;;18.40;60.80;;;;;;4986877;28;20049;-92
2022/05/08 12:17:49;;;;;;;6.63;2.45;;;18.50;61.30;;;;;;5002226;28;20045;-95
2022/05/08 12:20:26;;;;;;;8.45;2.00;;;18.70;60.60;;;;;;5001570;28;20045;-95
2022/05/08 12:23:08;;;;;;;12.68;2.22;;;18.80;61.70;;;;;;5002051;28;20113;-94
2022/05/08 12:25:41;;;;;;;12.50;2.20;;;18.90;61.20;;;;;;5001593;28;20061;-94
2022/05/08 12:28:09;;;;;;;14.70;2.30;;;19.00;60.90;;;;;;4986415;28;20049;-93
2022/05/08 12:30:35;;;;;;;7.82;2.35;;;19.10;60.00;;;;;;4969791;28;20052;-94
2022/05/08 12:33:02;;;;;;;7.75;2.17;;;19.20;60.30;;;;;;4985390;28;20080;-93
2022/05/08 12:35:28;;;;;;;9.25;2.60;;;19.30;59.60;;;;;;4985427;28;20100;-93
2022/05/08 12:37:55;;;;;;;9.48;2.15;;;19.20;58.60;;;;;;5001606;28;20041;-94
2022/05/08 12:40:21;;;;;;;12.38;2.85;;;19.20;59.70;;;;;;4969939;28;20041;-93
2022/05/08 12:42:47;;;;;;;8.57;1.95;;;19.20;60.10;;;;;;4985559;28;20462;-93
2022/05/08 12:45:14;;;;;;;9.07;2.50;;;19.20;59.20;;;;;;4985714;28;20479;-94
2022/05/08 12:47:40;;;;;;;11.07;2.13;;;19.20;59.20;;;;;;5000899;28;20107;-93
2022/05/08 12:50:10;;;;;;;11.82;2.20;;;19.40;59.60;;;;;;5001270;28;20038;-93
2022/05/08 12:52:37;;;;;;;6.97;2.08;;;19.40;58.90;;;;;;5017714;28;20103;-95
2022/05/08 12:55:04;;;;;;;7.70;2.20;;;19.50;58.20;;;;;;4972825;28;20053;-93
2022/05/08 13:00:15;;;;;;;7.15;2.25;;;19.60;58.60;;;;;;5022065;28;20052;-94
2022/05/08 13:02:41;;;;;;;11.05;2.53;;;19.80;59.30;;;;;;4957198;28;20050;-96
2022/05/08 13:05:08;;;;;;;9.43;2.30;;;19.90;58.20;;;;;;4988746;28;20103;-95
2022/05/08 13:07:34;;;;;;;12.75;2.60;;;19.90;57.50;;;;;;4972915;28;20045;-94
2022/05/08 13:10:00;;;;;;;12.65;2.50;;;19.90;58.10;;;;;;4973049;28;20410;-93
2022/05/08 13:12:26;;;;;;;10.60;2.38;;;20.10;58.40;;;;;;4972754;28;20128;-93
2022/05/08 13:14:52;;;;;;;6.60;2.20;;;20.10;56.50;;;;;;4972279;28;20199;-92
2022/05/08 13:17:18;;;;;;;14.50;2.17;;;20.00;57.00;;;;;;4972805;28;20045;-94
2022/05/08 13:19:44;;;;;;;10.50;2.17;;;20.00;57.00;;;;;;4972661;28;20128;-93